createdAt,value
2019-02-09T00:01:08.775Z,22.63
2019-02-09T00:03:39.594Z,19.83
2019-02-09T00:06:10.227Z,20.77
2019-02-09T00:08:40.775Z,20.83
2019-02-09T00:11:11.207Z,18.03
2019-02-09T00:13:41.739Z,22.33
2019-02-09T00:16:12.278Z,19.67
2019-02-09T00:18:42.915Z,17.33
2019-02-09T00:21:13.464Z,18.07
2019-02-09T00:23:43.922Z,21.13
2019-02-09T00:26:14.603Z,15.63
2019-02-09T00:28:45.065Z,15.83
2019-02-09T00:31:15.452Z,16.37
2019-02-09T00:33:45.995Z,17.20
2019-02-09T00:36:16.576Z,20.20
2019-02-09T00:38:47.136Z,16.73
2019-02-09T00:41:17.680Z,13.23
2019-02-09T00:43:48.218Z,19.53
2019-02-09T00:46:18.663Z,17.47
2019-02-09T00:48:49.124Z,14.30
2019-02-09T00:51:19.663Z,19.80
2019-02-09T00:53:50.128Z,16.27
2019-02-09T00:56:20.591Z,14.80
2019-02-09T00:58:51.054Z,21.37
2019-02-09T01:01:21.610Z,20.80
2019-02-09T01:03:51.975Z,18.53
2019-02-09T01:06:22.410Z,15.57
2019-02-09T01:08:52.843Z,15.67
2019-02-09T01:11:23.384Z,18.70
2019-02-09T01:13:53.923Z,19.93
2019-02-09T01:16:24.459Z,18.73
2019-02-09T01:18:55.010Z,10.57
2019-02-09T01:21:25.535Z,15.77
2019-02-09T01:23:55.998Z,13.47
2019-02-09T01:26:26.529Z,15.70
2019-02-09T01:28:57.187Z,17.47
2019-02-09T01:31:27.715Z,10.83
2019-02-09T01:33:58.255Z,16.00
2019-02-09T01:36:28.616Z,20.20
2019-02-09T01:38:59.088Z,12.40
2019-02-09T01:41:29.626Z,16.13
2019-02-09T01:43:59.989Z,13.47
2019-02-09T01:46:30.607Z,12.30
2019-02-09T01:49:01.133Z,14.13
2019-02-09T01:51:31.563Z,16.43
2019-02-09T01:54:02.199Z,13.17
2019-02-09T01:56:32.728Z,13.83
2019-02-09T01:59:03.271Z,15.77
2019-02-09T02:01:33.799Z,13.37
2019-02-09T02:04:04.339Z,13.67
2019-02-09T02:06:34.775Z,17.00
2019-02-09T02:09:07.018Z,15.23
2019-02-09T02:11:37.558Z,18.40
2019-02-09T02:14:08.209Z,15.97
2019-02-09T02:16:38.679Z,14.73
2019-02-09T02:19:09.202Z,15.23
2019-02-09T02:21:39.579Z,13.70
2019-02-09T02:24:09.984Z,19.57
2019-02-09T02:26:40.527Z,14.03
2019-02-09T02:29:11.055Z,17.37
2019-02-09T02:31:41.691Z,14.80
2019-02-09T02:34:12.160Z,18.80
2019-02-09T02:36:42.695Z,21.23
2019-02-09T02:39:13.173Z,19.67
2019-02-09T02:41:43.620Z,17.90
2019-02-09T02:44:14.146Z,17.47
2019-02-09T02:46:44.812Z,15.30
2019-02-09T02:49:15.345Z,22.30
2019-02-09T02:51:45.888Z,14.47
2019-02-09T02:54:16.439Z,14.37
2019-02-09T02:56:47.051Z,19.77
2019-02-09T02:59:17.418Z,17.97
2019-02-09T03:01:47.995Z,17.77
2019-02-09T03:04:18.309Z,14.50
2019-02-09T03:06:48.825Z,14.80
2019-02-09T03:09:19.295Z,15.30
2019-02-09T03:11:49.655Z,15.77
2019-02-09T03:14:20.122Z,11.90
2019-02-09T03:16:50.654Z,15.30
2019-02-09T03:19:21.067Z,22.40
2019-02-09T03:21:51.423Z,16.23
2019-02-09T03:24:21.727Z,11.97
2019-02-09T03:26:52.252Z,15.20
2019-02-09T03:29:22.719Z,14.57
2019-02-09T03:31:53.144Z,17.63
2019-02-09T03:34:23.675Z,11.03
2019-02-09T03:36:54.242Z,16.93
2019-02-09T03:39:24.698Z,13.10
2019-02-09T03:41:55.343Z,14.27
2019-02-09T03:44:25.769Z,16.93
2019-02-09T03:46:56.308Z,13.43
2019-02-09T03:49:26.679Z,14.50
2019-02-09T03:51:57.110Z,12.03
2019-02-09T03:54:27.550Z,14.97
2019-02-09T03:56:58.081Z,12.33
2019-02-09T03:59:28.718Z,10.03
2019-02-09T04:01:59.368Z,14.13
2019-02-09T04:04:30.394Z,9.37
2019-02-09T04:07:00.931Z,12.27
2019-02-09T04:09:31.471Z,13.60
2019-02-09T04:12:01.916Z,14.37
2019-02-09T04:14:32.447Z,14.57
2019-02-09T04:17:03.083Z,13.23
2019-02-09T04:19:33.496Z,10.73
2019-02-09T04:22:04.023Z,13.27
2019-02-09T04:24:34.558Z,16.77
2019-02-09T04:27:05.007Z,16.27
2019-02-09T04:29:35.560Z,14.90
2019-02-09T04:32:06.130Z,14.03
2019-02-09T04:34:37.200Z,13.90
2019-02-09T04:37:07.639Z,16.47
2019-02-09T04:39:38.019Z,14.40
2019-02-09T04:42:08.379Z,14.13
2019-02-09T04:44:38.821Z,14.10
2019-02-09T04:47:09.250Z,15.07
2019-02-09T04:49:39.790Z,19.97
2019-02-09T04:52:10.339Z,18.80
2019-02-09T04:54:40.879Z,17.37
2019-02-09T04:57:11.411Z,17.37
2019-02-09T04:59:42.258Z,20.70
2019-02-09T05:02:12.818Z,14.67
2019-02-09T05:04:43.753Z,18.17
2019-02-09T05:07:14.295Z,14.73
2019-02-09T05:09:44.837Z,14.93
2019-02-09T05:12:15.268Z,21.87
2019-02-09T05:14:45.944Z,21.80
2019-02-09T05:17:16.250Z,19.53
2019-02-09T05:19:46.800Z,17.93
2019-02-09T05:22:17.351Z,18.60
2019-02-09T05:24:47.780Z,19.67
2019-02-09T05:27:18.312Z,21.67
2019-02-09T05:29:48.860Z,18.47
2019-02-09T05:32:19.329Z,20.37
2019-02-09T05:34:49.778Z,18.13
2019-02-09T05:37:20.211Z,18.83
2019-02-09T05:39:50.756Z,21.90
2019-02-09T05:42:21.196Z,18.97
2019-02-09T05:44:52.067Z,25.10
2019-02-09T05:47:22.431Z,23.13
2019-02-09T05:49:52.975Z,22.67
2019-02-09T05:52:23.264Z,30.80
2019-02-09T05:54:53.811Z,23.63
2019-02-09T05:57:24.344Z,24.13
2019-02-09T05:59:54.762Z,27.63
2019-02-09T06:02:25.221Z,33.23
2019-02-09T06:04:55.664Z,28.93
2019-02-09T06:07:26.107Z,31.57
2019-02-09T06:09:56.879Z,24.57
2019-02-09T06:12:27.411Z,22.27
2019-02-09T06:14:57.972Z,24.70
2019-02-09T06:17:28.509Z,25.23
2019-02-09T06:19:58.883Z,32.37
2019-02-09T06:22:29.417Z,30.10
2019-02-09T06:24:59.724Z,32.87
2019-02-09T06:27:30.311Z,28.70
2019-02-09T06:30:00.963Z,27.23
2019-02-09T06:32:31.423Z,26.50
2019-02-09T06:35:01.799Z,23.00
2019-02-09T06:37:32.348Z,22.07
2019-02-09T06:40:02.983Z,29.17
2019-02-09T06:42:33.444Z,20.57
2019-02-09T06:45:06.043Z,28.03
2019-02-09T06:47:36.591Z,25.63
2019-02-09T06:50:10.067Z,27.63
2019-02-09T06:52:40.615Z,20.60
2019-02-09T06:55:13.571Z,20.77
2019-02-09T06:57:44.007Z,18.17
2019-02-09T07:00:17.468Z,25.83
2019-02-09T07:02:47.928Z,19.40
2019-02-09T07:05:19.872Z,18.33
2019-02-09T07:07:50.504Z,18.30
2019-02-09T07:10:23.247Z,22.27
2019-02-09T07:12:54.079Z,23.27
2019-02-09T07:15:32.600Z,18.00
2019-02-09T07:18:03.231Z,22.17
2019-02-09T07:20:33.885Z,18.37
2019-02-09T07:23:06.125Z,19.83
2019-02-09T07:25:36.774Z,29.00
2019-02-09T07:28:07.203Z,21.30
2019-02-09T07:30:37.848Z,16.63
2019-02-09T07:33:08.487Z,20.90
2019-02-09T07:35:38.963Z,20.10
2019-02-09T07:38:09.499Z,23.07
2019-02-09T07:40:40.119Z,24.47
2019-02-09T07:43:10.551Z,24.70
2019-02-09T07:45:41.327Z,14.97
2019-02-09T07:48:11.873Z,18.77
2019-02-09T07:50:42.312Z,23.40
2019-02-09T07:53:12.887Z,21.60
2019-02-09T07:55:43.421Z,21.93
2019-02-09T07:58:13.879Z,23.00
2019-02-09T08:00:44.411Z,24.20
2019-02-09T08:03:14.971Z,22.70
2019-02-09T08:05:45.503Z,20.53
2019-02-09T08:08:16.049Z,17.73
2019-02-09T08:10:46.512Z,18.60
2019-02-09T08:13:17.059Z,27.57
2019-02-09T08:18:18.999Z,18.23
2019-02-09T08:20:49.547Z,24.93
2019-02-09T08:23:20.210Z,24.33
2019-02-09T08:25:50.651Z,25.30
2019-02-09T08:28:21.301Z,21.47
2019-02-09T08:30:51.936Z,24.80
2019-02-09T08:33:22.491Z,21.43
2019-02-09T08:35:53.428Z,24.93
2019-02-09T08:38:23.877Z,24.40
2019-02-09T08:40:54.307Z,27.70
2019-02-09T08:43:24.865Z,23.77
2019-02-09T08:45:55.399Z,22.73
2019-02-09T08:48:25.848Z,22.30
2019-02-09T08:51:05.267Z,20.73
2019-02-09T08:53:35.820Z,20.20
2019-02-09T08:56:06.355Z,23.50
2019-02-09T08:58:36.735Z,21.13
2019-02-09T09:01:07.383Z,17.90
2019-02-09T09:03:37.919Z,22.23
2019-02-09T09:06:08.668Z,24.83
2019-02-09T09:08:39.132Z,25.73
2019-02-09T09:11:09.975Z,17.47
2019-02-09T09:13:40.528Z,20.27
2019-02-09T09:16:11.083Z,30.17
2019-02-09T09:18:41.691Z,21.77
2019-02-09T09:21:12.135Z,28.30
2019-02-09T09:23:42.671Z,26.07
2019-02-09T09:26:13.215Z,19.97
2019-02-09T09:28:43.684Z,28.63
2019-02-09T09:31:14.232Z,22.97
2019-02-09T09:33:44.663Z,23.07
2019-02-09T09:36:15.107Z,25.93
2019-02-09T09:38:45.654Z,26.00
2019-02-09T09:41:16.050Z,23.47
2019-02-09T09:43:46.579Z,27.30
2019-02-09T09:46:17.148Z,31.87
2019-02-09T09:48:47.611Z,28.47
2019-02-09T09:51:18.359Z,32.60
2019-02-09T09:53:48.895Z,27.10
2019-02-09T09:56:19.343Z,28.17
2019-02-09T09:58:49.991Z,26.03
2019-02-09T10:01:20.827Z,31.00
2019-02-09T10:03:52.180Z,32.07
2019-02-09T10:06:22.639Z,29.17
2019-02-09T10:08:53.207Z,29.57
2019-02-09T10:11:23.742Z,26.37
2019-02-09T10:13:54.151Z,28.63
2019-02-09T10:16:24.787Z,24.87
2019-02-09T10:18:55.435Z,30.87
2019-02-09T10:21:26.088Z,25.80
2019-02-09T10:23:56.723Z,20.37
2019-02-09T10:26:27.370Z,29.60
2019-02-09T10:28:57.911Z,28.83
2019-02-09T10:31:28.851Z,26.50
2019-02-09T10:33:59.274Z,28.00
2019-02-09T10:36:29.635Z,26.37
2019-02-09T10:39:00.073Z,24.40
2019-02-09T10:41:30.504Z,20.67
2019-02-09T10:44:01.160Z,23.00
2019-02-09T10:46:31.623Z,22.57
2019-02-09T10:49:02.173Z,21.03
2019-02-09T10:51:32.703Z,21.90
2019-02-09T10:54:03.163Z,23.70
2019-02-09T10:56:33.602Z,20.97
2019-02-09T10:59:04.135Z,21.43
2019-02-09T11:01:34.707Z,25.53
2019-02-09T11:04:05.443Z,19.53
2019-02-09T11:06:36.004Z,23.77
2019-02-09T11:09:10.171Z,23.60
2019-02-09T11:11:40.718Z,14.30
2019-02-09T11:14:11.266Z,22.83
2019-02-09T11:16:41.811Z,17.77
2019-02-09T11:19:12.364Z,22.87
2019-02-09T11:21:42.900Z,23.30
2019-02-09T11:24:13.295Z,19.50
2019-02-09T11:26:43.830Z,17.73
2019-02-09T11:29:14.311Z,20.43
2019-02-09T11:31:44.783Z,24.87
2019-02-09T11:34:15.318Z,23.30
2019-02-09T11:36:45.867Z,28.27
2019-02-09T11:39:16.400Z,21.13
2019-02-09T11:41:47.151Z,21.90
2019-02-09T11:44:17.687Z,23.60
2019-02-09T11:46:48.375Z,25.23
2019-02-09T11:49:18.671Z,25.03
2019-02-09T11:51:49.055Z,22.33
2019-02-09T11:54:19.419Z,19.17
2019-02-09T11:56:49.863Z,22.80
2019-02-09T11:59:21.327Z,24.53
2019-02-09T12:01:52.057Z,24.60
2019-02-09T12:04:22.326Z,16.53
2019-02-09T12:06:53.071Z,14.27
2019-02-09T12:09:23.616Z,14.67
2019-02-09T12:11:54.243Z,15.23
2019-02-09T12:14:24.555Z,17.63
2019-02-09T12:16:55.095Z,16.67
2019-02-09T12:21:55.927Z,14.90
2019-02-09T12:24:26.563Z,16.60
2019-02-09T12:26:57.036Z,16.60
2019-02-09T12:29:27.463Z,13.87
2019-02-09T12:31:57.899Z,15.07
2019-02-09T12:34:28.463Z,14.73
2019-02-09T12:36:58.799Z,15.27
2019-02-09T12:39:29.162Z,14.67
2019-02-09T12:41:59.599Z,12.93
2019-02-09T12:44:30.226Z,12.43
2019-02-09T12:47:00.673Z,11.93
2019-02-09T12:49:31.043Z,15.97
2019-02-09T12:52:01.407Z,10.27
2019-02-09T12:54:31.922Z,11.70
2019-02-09T12:57:02.659Z,17.83
2019-02-09T12:59:33.102Z,12.97
2019-02-09T13:02:03.570Z,14.33
2019-02-09T13:04:34.011Z,12.23
2019-02-09T13:07:04.558Z,12.30
2019-02-09T13:09:35.095Z,10.40
2019-02-09T13:12:05.635Z,13.20
2019-02-09T13:14:36.400Z,10.40
2019-02-09T13:17:06.835Z,10.43
2019-02-09T13:19:37.274Z,14.43
2019-02-09T13:22:07.811Z,14.17
2019-02-09T13:24:38.187Z,12.37
2019-02-09T13:27:08.615Z,12.13
2019-02-09T13:29:39.155Z,15.60
2019-02-09T13:32:09.683Z,11.73
2019-02-09T13:34:40.430Z,11.83
2019-02-09T13:37:10.805Z,16.47
2019-02-09T13:39:41.199Z,12.63
2019-02-09T13:42:11.740Z,11.13
2019-02-09T13:44:42.263Z,14.60
2019-02-09T13:47:16.549Z,14.47
2019-02-09T13:49:53.859Z,11.90
2019-02-09T13:52:24.335Z,10.63
2019-02-09T13:54:54.755Z,14.17
2019-02-09T13:57:25.186Z,16.10
2019-02-09T13:59:55.619Z,15.00
2019-02-09T14:02:26.192Z,11.63
2019-02-09T14:04:56.548Z,10.37
2019-02-09T14:07:27.100Z,17.40
2019-02-09T14:09:57.559Z,13.63
2019-02-09T14:12:28.112Z,13.63
2019-02-09T14:14:58.575Z,11.80
2019-02-09T14:17:29.207Z,8.70
2019-02-09T14:19:59.838Z,9.33
2019-02-09T14:22:30.295Z,12.90
2019-02-09T14:25:00.956Z,11.33
2019-02-09T14:27:31.319Z,11.83
2019-02-09T14:30:01.953Z,9.40
2019-02-09T14:32:32.483Z,7.70
2019-02-09T14:35:03.980Z,8.10
2019-02-09T14:37:34.375Z,8.07
2019-02-09T14:40:16.575Z,10.07
2019-02-09T14:42:47.099Z,9.07
2019-02-09T14:45:22.882Z,6.97
2019-02-09T14:47:53.400Z,9.93
2019-02-09T14:50:23.847Z,7.40
2019-02-09T14:52:54.366Z,5.87
2019-02-09T14:55:27.375Z,8.90
2019-02-09T14:57:57.915Z,11.87
2019-02-09T15:00:33.608Z,8.17
2019-02-09T15:03:05.548Z,6.83
2019-02-09T15:05:35.967Z,8.40
2019-02-09T15:08:07.209Z,9.27
2019-02-09T15:10:37.629Z,9.67
2019-02-09T15:13:09.275Z,9.27
2019-02-09T15:15:45.807Z,10.80
2019-02-09T15:18:16.347Z,8.13
2019-02-09T15:20:55.788Z,11.43
2019-02-09T15:23:26.215Z,11.50
2019-02-09T15:25:56.869Z,9.40
2019-02-09T15:28:27.391Z,11.97
2019-02-09T15:30:58.243Z,13.70
2019-02-09T15:33:28.669Z,9.57
2019-02-09T15:35:59.205Z,16.73
2019-02-09T15:38:29.726Z,12.00
2019-02-09T15:41:00.403Z,13.10
2019-02-09T15:43:30.763Z,11.30
2019-02-09T15:46:01.305Z,8.73
2019-02-09T15:48:31.787Z,12.67
2019-02-09T15:51:02.213Z,10.47
2019-02-09T15:53:32.575Z,15.23
2019-02-09T15:56:03.152Z,12.60
2019-02-09T15:58:33.619Z,12.57
2019-02-09T16:01:04.148Z,15.87
2019-02-09T16:03:34.584Z,15.13
2019-02-09T16:06:05.232Z,12.60
2019-02-09T16:08:35.687Z,16.70
2019-02-09T16:11:06.231Z,11.17
2019-02-09T16:13:36.773Z,12.70
2019-02-09T16:16:07.305Z,15.70
2019-02-09T16:18:37.775Z,28.10
2019-02-09T16:21:08.327Z,13.60
2019-02-09T16:23:38.863Z,15.97
2019-02-09T16:26:10.995Z,16.17
2019-02-09T16:28:41.295Z,12.13
2019-02-09T16:31:11.928Z,11.07
2019-02-09T16:33:42.475Z,9.30
2019-02-09T16:36:12.995Z,14.93
2019-02-09T16:38:43.463Z,8.83
2019-02-09T16:41:14.103Z,15.30
2019-02-09T16:43:44.523Z,8.47
2019-02-09T16:46:15.062Z,10.00
2019-02-09T16:48:45.787Z,10.00
2019-02-09T16:51:16.239Z,9.23
2019-02-09T16:53:47.087Z,9.77
2019-02-09T16:56:17.620Z,9.57
2019-02-09T16:58:48.062Z,14.57
2019-02-09T17:01:18.538Z,8.17
2019-02-09T17:03:49.172Z,7.87
2019-02-09T17:06:19.519Z,9.27
2019-02-09T17:08:49.991Z,12.67
2019-02-09T17:11:20.340Z,8.77
2019-02-09T17:13:50.879Z,12.17
2019-02-09T17:16:21.227Z,8.83
2019-02-09T17:18:51.760Z,11.03
2019-02-09T17:21:22.295Z,8.80
2019-02-09T17:23:52.724Z,11.50
2019-02-09T17:26:23.119Z,10.97
2019-02-09T17:28:53.660Z,11.30
2019-02-09T17:31:24.626Z,8.00
2019-02-09T17:33:55.155Z,10.37
2019-02-09T17:36:25.595Z,11.20
2019-02-09T17:38:56.035Z,13.93
2019-02-09T17:41:26.459Z,8.40
2019-02-09T17:43:56.983Z,12.17
2019-02-09T17:46:27.524Z,11.43
2019-02-09T17:48:57.967Z,10.43
2019-02-09T17:51:28.413Z,8.60
2019-02-09T17:53:58.839Z,10.20
2019-02-09T17:56:29.276Z,9.00
2019-02-09T17:58:59.707Z,11.03
2019-02-09T18:01:30.067Z,7.50
2019-02-09T18:04:00.595Z,10.47
2019-02-09T18:06:31.047Z,9.10
2019-02-09T18:09:01.567Z,13.50
2019-02-09T18:11:32.110Z,10.13
2019-02-09T18:14:02.650Z,12.37
2019-02-09T18:16:33.109Z,10.57
2019-02-09T18:19:03.731Z,11.30
2019-02-09T18:21:34.167Z,10.83
2019-02-09T18:24:04.995Z,8.27
2019-02-09T18:26:35.571Z,11.43
2019-02-09T18:29:06.092Z,8.63
2019-02-09T18:31:36.957Z,11.90
2019-02-09T18:34:07.479Z,12.80
2019-02-09T18:36:37.856Z,9.43
2019-02-09T18:39:10.263Z,13.20
2019-02-09T18:41:40.649Z,13.90
2019-02-09T18:44:11.483Z,11.30
2019-02-09T18:46:42.031Z,11.27
2019-02-09T18:49:12.399Z,7.67
2019-02-09T18:51:42.818Z,7.80
2019-02-09T18:54:13.247Z,7.17
2019-02-09T18:56:43.779Z,10.37
2019-02-09T18:59:14.251Z,9.27
2019-02-09T19:01:44.875Z,14.83
2019-02-09T19:04:15.415Z,9.73
2019-02-09T19:06:45.763Z,9.53
2019-02-09T19:09:16.123Z,8.57
2019-02-09T19:11:46.663Z,11.70
2019-02-09T19:14:17.113Z,9.27
2019-02-09T19:16:47.651Z,9.63
2019-02-09T19:19:18.275Z,11.07
2019-02-09T19:21:49.496Z,14.43
2019-02-09T19:24:19.939Z,14.17
2019-02-09T19:26:50.311Z,12.30
2019-02-09T19:29:20.890Z,13.17
2019-02-09T19:31:51.315Z,16.70
2019-02-09T19:34:21.839Z,12.87
2019-02-09T19:36:52.315Z,15.47
2019-02-09T19:39:22.844Z,13.03
2019-02-09T19:41:53.419Z,9.20
2019-02-09T19:44:23.802Z,9.37
2019-02-09T19:46:54.235Z,13.73
2019-02-09T19:49:25.003Z,13.77
2019-02-09T19:51:55.930Z,15.73
2019-02-09T19:54:26.408Z,17.37
2019-02-09T19:56:56.869Z,15.53
2019-02-09T19:59:27.335Z,9.30
2019-02-09T20:01:57.876Z,14.50
2019-02-09T20:04:28.499Z,14.57
2019-02-09T20:06:58.991Z,13.03
2019-02-09T20:09:29.405Z,15.23
2019-02-09T20:11:59.867Z,15.67
2019-02-09T20:14:30.159Z,9.00
2019-02-09T20:17:00.697Z,13.70
2019-02-09T20:19:31.223Z,11.20
2019-02-09T20:22:01.659Z,14.87
2019-02-09T20:24:32.103Z,12.03
2019-02-09T20:27:02.463Z,11.63
2019-02-09T20:29:32.835Z,15.50
2019-02-09T20:32:03.429Z,15.47
2019-02-09T20:34:33.960Z,19.47
2019-02-09T20:37:04.497Z,12.50
2019-02-09T20:39:35.033Z,19.37
2019-02-09T20:42:05.573Z,13.93
2019-02-09T20:44:36.111Z,8.30
2019-02-09T20:47:06.640Z,18.00
2019-02-09T20:49:37.007Z,17.97
2019-02-09T20:52:07.367Z,16.13
2019-02-09T20:54:37.835Z,16.57
2019-02-09T20:57:08.379Z,15.07
2019-02-09T20:59:38.807Z,14.13
2019-02-09T21:02:09.351Z,14.47
2019-02-09T21:04:39.779Z,18.27
2019-02-09T21:07:10.263Z,11.97
2019-02-09T21:09:40.856Z,12.43
2019-02-09T21:12:11.239Z,12.23
2019-02-09T21:14:41.663Z,12.70
2019-02-09T21:17:12.102Z,16.00
2019-02-09T21:19:42.547Z,16.43
2019-02-09T21:22:12.902Z,10.83
2019-02-09T21:24:43.447Z,13.17
2019-02-09T21:27:13.799Z,18.37
2019-02-09T21:29:44.279Z,16.93
2019-02-09T21:32:14.843Z,13.83
2019-02-09T21:34:45.243Z,15.07
2019-02-09T21:37:15.772Z,14.57
2019-02-09T21:39:46.067Z,9.57
2019-02-09T21:42:16.523Z,12.70
2019-02-09T21:44:46.990Z,14.43
2019-02-09T21:47:17.351Z,13.37
2019-02-09T21:49:47.750Z,13.50
2019-02-09T21:52:18.275Z,13.17
2019-02-09T21:54:48.716Z,9.87
2019-02-09T21:57:19.188Z,12.63
2019-02-09T21:59:51.129Z,13.47
2019-02-09T22:02:21.687Z,9.47
2019-02-09T22:04:52.239Z,14.47
2019-02-09T22:07:22.888Z,10.13
2019-02-09T22:09:53.434Z,11.47
2019-02-09T22:12:23.911Z,14.13
2019-02-09T22:14:54.305Z,9.57
2019-02-09T22:17:24.734Z,12.27
2019-02-09T22:19:55.531Z,11.77
2019-02-09T22:22:25.961Z,12.97
2019-02-09T22:24:56.736Z,12.93
2019-02-09T22:27:27.293Z,11.90
2019-02-09T22:29:57.783Z,13.40
2019-02-09T22:32:28.163Z,15.67
2019-02-09T22:34:58.707Z,12.10
2019-02-09T22:37:29.126Z,10.10
2019-02-09T22:39:59.535Z,11.43
2019-02-09T22:42:29.891Z,11.37
2019-02-09T22:45:00.257Z,9.83
2019-02-09T22:47:30.725Z,8.67
2019-02-09T22:50:01.070Z,8.10
2019-02-09T22:52:31.469Z,13.63
2019-02-09T22:55:01.899Z,12.20
2019-02-09T22:57:32.199Z,12.33
2019-02-09T23:00:02.571Z,11.87
2019-02-09T23:05:15.615Z,9.50
2019-02-09T23:07:46.043Z,12.13
2019-02-09T23:10:16.510Z,8.40
2019-02-09T23:12:48.598Z,9.57
2019-02-09T23:15:19.119Z,9.70
2019-02-09T23:17:49.413Z,9.27
2019-02-09T23:20:19.716Z,12.20
2019-02-09T23:22:50.026Z,11.87
2019-02-09T23:25:20.309Z,5.37
2019-02-09T23:27:50.509Z,8.20
2019-02-09T23:30:20.717Z,10.70
2019-02-09T23:32:50.920Z,6.97
2019-02-09T23:35:21.635Z,7.20
2019-02-09T23:37:51.847Z,8.27
2019-02-09T23:40:22.120Z,10.70
2019-02-09T23:42:52.352Z,10.13
2019-02-09T23:45:22.794Z,7.93
2019-02-09T23:47:53.077Z,9.53
2019-02-09T23:50:23.284Z,11.67
2019-02-09T23:52:53.597Z,7.90
2019-02-09T23:55:24.042Z,7.93
2019-02-09T23:57:54.327Z,7.87
